Date,TemperatureHighF,TemperatureAvgF,TemperatureLowF,DewpointHighF,DewpointAvgF,DewpointLowF,HumidityHigh,HumidityAvg,HumidityLow,PressureMaxIn,PressureMinIn,WindSpeedMaxMPH,WindSpeedAvgMPH,GustSpeedMaxMPH,PrecipitationSumIn
2013-1-1,41.9,35.4,31.3,34.2,29.4,26.1,85,79,56,30.45,30.30,7,2,21,0.00
2013-1-2,46.6,40.1,36.7,29.5,25.5,22.9,59,56,50,30.31,30.15,9,4,22,0.00
2013-1-3,42.4,38.2,34.3,35.1,25.7,21.5,80,61,51,30.19,30.07,9,4,22,0.02
2013-1-4,48.7,43.2,39.7,43.4,38.2,34.6,85,82,77,30.33,30.14,5,1,11,0.29
2013-1-5,45.0,42.7,37.2,37.1,33.7,31.7,82,71,64,30.19,30.12,8,2,21,0.04
2013-1-6,48.7,40.9,34.0,42.4,35.6,29.4,85,81,74,30.21,30.00,3,0,9,0.18
2013-1-7,50.4,46.6,41.7,46.6,42.6,37.5,87,86,85,30.21,29.94,14,2,20,1.12
2013-1-8,54.4,48.9,41.9,49.9,44.4,38.0,87,84,78,30.20,29.84,12,3,23,0.33
2013-1-9,50.4,40.4,31.9,44.0,35.8,27.9,86,83,78,29.99,29.75,9,1,21,1.32
2013-1-10,42.6,34.6,29.1,37.8,30.5,25.2,87,85,82,30.13,29.99,1,0,5,0.02
2013-1-11,39.9,30.0,22.3,34.3,24.5,18.2,86,80,62,30.33,30.13,3,0,8,0.00
2013-1-12,39.9,28.1,21.0,33.2,22.4,16.9,85,79,64,30.44,30.32,3,0,9,0.00
2013-1-13,39.9,27.4,18.1,31.9,21.6,13.8,85,79,66,30.50,30.41,2,0,7,0.02
2013-1-14,34.7,32.3,27.1,30.5,27.8,22.4,85,83,81,30.56,30.48,3,1,7,0.04
2013-1-15,44.2,34.8,26.2,38.8,30.2,22.1,87,83,77,30.66,30.56,3,0,7,0.00
2013-1-16,43.9,30.8,22.1,37.3,26.0,18.0,86,82,74,30.65,30.45,3,0,7,0.00
2013-1-17,50.7,35.2,27.6,39.4,29.4,22.8,86,80,64,30.46,30.27,6,1,10,0.02
2013-1-18,55.6,33.9,22.8,43.8,28.0,18.7,86,79,63,30.28,30.21,1,0,3,0.00
2013-1-19,54.1,34.6,26.2,39.7,28.2,22.0,85,78,56,30.33,30.24,2,0,7,0.00
2013-1-20,51.6,32.8,21.7,40.3,26.6,17.4,85,78,59,30.35,30.19,5,0,14,0.02
2013-1-21,53.2,36.8,27.1,36.7,28.3,22.7,84,72,52,30.24,30.09,5,1,14,0.00
2013-1-22,50.8,40.7,33.6,31.3,27.9,25.0,72,61,46,30.12,29.90,6,2,12,0.00
2013-1-23,44.4,40.3,37.9,38.3,33.2,28.7,84,76,59,30.19,29.86,7,1,13,0.33
2013-1-24,47.1,40.9,34.0,40.6,35.9,29.9,86,82,74,30.22,30.06,6,1,12,0.20
2013-1-25,49.1,42.5,32.9,45.1,38.4,28.9,86,85,84,30.08,29.94,5,0,7,0.18
2013-1-26,50.2,41.0,35.8,44.2,36.6,32.0,87,84,76,30.09,29.91,6,0,14,0.33
2013-1-27,43.2,39.5,35.2,39.3,35.6,31.1,87,86,85,30.12,30.03,2,0,7,0.44
2013-1-28,44.8,42.6,40.6,40.8,38.8,36.8,87,86,86,30.22,30.10,7,2,23,0.82
2013-1-29,48.4,45.5,43.9,44.4,41.7,40.3,87,86,86,30.45,30.22,5,2,16,0.15
2013-1-30,50.2,48.2,46.2,46.5,44.4,42.3,87,87,86,30.45,30.41,5,1,14,0.77
2013-1-31,51.3,44.6,17.4,47.6,40.8,14.0,88,87,86,30.46,30.33,1,0,4,0.15